Time;durP1;ratioP1;P1;durP2;ratioP2;P2;SDS_P1;SDS_P2;PMS_P1;PMS_P2;Temp;Humidity;BMP_temperature;BMP_pressure;BME280_temperature;BME280_humidity;BME280_pressure;Samples;Min_cycle;Max_cycle;Signal;HPM_P1;HPM_P2
2021/04/21 00:03:25;;;;;;;;;;;6.60;99.90;;;5.33;85.21;95591.81;10437974;28;1966;-83
2021/04/21 00:08:27;;;;;;;;;;;6.90;99.90;;;5.32;85.09;95589.41;10445439;28;1543;-85
2021/04/21 00:13:28;;;;;;;;;;;6.60;99.90;;;5.13;85.27;95584.34;10456184;28;1886;-83
2021/04/21 00:18:30;;;;;;;;;;;6.50;99.90;;;5.07;85.42;95584.50;10453697;28;1952;-85
2021/04/21 00:23:32;;;;;;;;;;;6.40;99.90;;;5.01;86.05;95577.50;10441211;28;1894;-84
2021/04/21 00:28:34;;;;;;;;;;;6.30;99.90;;;4.96;86.10;95569.41;10455259;28;1684;-82
2021/04/21 00:33:36;;;;;;;;;;;6.20;99.90;;;4.89;86.16;95570.38;10482980;28;1873;-84
2021/04/21 00:38:38;;;;;;;;;;;6.20;99.90;;;4.85;86.46;95566.63;10483934;28;1755;-82
2021/04/21 00:43:39;;;;;;;;;;;6.10;99.90;;;4.74;86.54;95559.50;10473864;28;1953;-84
2021/04/21 00:48:42;;;;;;;;;;;6.00;99.90;;;4.76;86.94;95560.06;10455230;28;2194;-81
2021/04/21 00:53:43;;;;;;;;;;;6.00;99.90;;;4.67;87.12;95558.06;10460087;28;1898;-84
2021/04/21 00:58:46;;;;;;;;;;;6.20;99.90;;;4.66;87.51;95551.13;10467548;28;1883;-80
2021/04/21 01:03:48;;;;;;;;;;;7.00;99.90;;;4.68;87.25;95549.81;10473722;28;3952;-81
2021/04/21 01:08:49;;;;;;;;;;;6.60;99.90;;;4.62;87.08;95550.78;10471137;28;2925;-84
2021/04/21 01:13:51;;;;;;;;;;;5.90;99.90;;;4.69;86.78;95545.28;10477085;28;2086;-84
2021/04/21 01:18:53;;;;;;;;;;;5.80;99.90;;;4.70;86.20;95534.41;10480395;28;1737;-82
2021/04/21 01:23:55;;;;;;;;;;;5.90;99.90;;;4.56;85.74;95543.75;10462897;28;2073;-83
2021/04/21 01:28:57;;;;;;;;;;;5.80;99.90;;;4.48;85.93;95544.97;10463727;28;2104;-82
2021/04/21 01:33:59;;;;;;;;;;;6.10;99.90;;;4.44;85.72;95553.66;10442784;28;2132;-84
2021/04/21 01:39:00;;;;;;;;;;;6.10;99.90;;;4.40;85.62;95552.56;10459796;28;2335;-82
2021/04/21 01:44:02;;;;;;;;;;;5.80;99.90;;;4.29;85.68;95554.22;10444290;28;2044;-84
2021/04/21 01:49:04;;;;;;;;;;;6.10;99.90;;;4.25;85.59;95556.53;10449701;28;2131;-84
2021/04/21 01:54:06;;;;;;;;;;;5.80;99.90;;;4.24;85.60;95549.59;10447503;28;2047;-83
2021/04/21 01:59:08;;;;;;;;;;;5.50;99.90;;;4.11;86.24;95549.09;10444856;28;2027;-82
2021/04/21 02:04:10;;;;;;;;;;;5.40;99.90;;;4.05;86.60;95556.97;10478436;28;1971;-83
2021/04/21 02:09:11;;;;;;;;;;;5.30;99.90;;;4.01;86.67;95552.38;10449337;28;2016;-83
2021/04/21 02:14:13;;;;;;;;;;;7.10;99.90;;;4.00;86.33;95543.56;10439596;28;2060;-82
2021/04/21 02:19:15;;;;;;;;;;;5.20;99.90;;;4.00;87.00;95556.06;10445211;28;2100;-83
2021/04/21 02:24:17;;;;;;;;;;;5.20;99.90;;;3.92;86.55;95543.16;10438191;28;2339;-83
2021/04/21 02:29:19;;;;;;;;;;;6.40;99.90;;;3.83;86.35;95550.72;10447834;28;2116;-83
2021/04/21 02:34:21;;;;;;;;;;;5.10;99.90;;;3.75;87.03;95557.22;10460581;28;2241;-82
2021/04/21 02:39:22;;;;;;;;;;;6.00;99.90;;;3.70;87.41;95546.47;10462164;28;2147;-82
2021/04/21 02:44:24;;;;;;;;;;;5.00;99.90;;;3.63;87.42;95543.16;10461042;28;2086;-84
2021/04/21 02:49:26;;;;;;;;;;;4.90;99.90;;;3.65;88.07;95540.25;10474965;28;2125;-82
2021/04/21 02:54:27;;;;;;;;;;;4.90;99.90;;;3.60;88.19;95548.09;10459715;28;2119;-84
2021/04/21 02:59:29;;;;;;;;;;;4.90;99.90;;;3.56;87.82;95542.44;10460538;28;2042;-83
2021/04/21 03:04:31;;;;;;;;;;;4.90;99.90;;;3.51;87.96;95545.81;10443148;28;2164;-82
2021/04/21 03:09:33;;;;;;;;;;;5.60;99.90;;;3.50;88.14;95544.22;10460614;28;2010;-82
2021/04/21 03:14:35;;;;;;;;;;;4.70;99.90;;;3.50;87.53;95546.06;10465032;28;1998;-83
2021/04/21 03:19:37;;;;;;;;;;;4.70;99.90;;;3.52;87.96;95541.31;10467523;28;1928;-85
2021/04/21 03:24:38;;;;;;;;;;;4.70;99.90;;;3.41;87.48;95537.63;10469895;28;2070;-81
2021/04/21 03:29:40;;;;;;;;;;;4.70;99.90;;;3.40;87.52;95536.03;10469515;28;2103;-80
2021/04/21 03:34:42;;;;;;;;;;;5.20;99.90;;;3.35;87.40;95532.44;10492362;28;1938;-82
2021/04/21 03:39:48;;;;;;;;;;;4.60;99.90;;;3.29;87.74;95536.84;10474635;28;2299;-79
2021/04/21 03:44:50;;;;;;;;;;;4.50;99.90;;;3.25;87.87;95533.06;10473530;28;1898;-82
2021/04/21 03:49:51;;;;;;;;;;;4.50;99.90;;;3.29;88.11;95530.72;10446688;28;2007;-84
2021/04/21 03:54:54;;;;;;;;;;;4.50;99.90;;;3.37;87.81;95522.38;10466596;28;2220;-83
2021/04/21 03:59:55;;;;;;;;;;;5.60;99.90;;;3.43;87.78;95522.25;10464224;28;1735;-82
2021/04/21 04:04:57;;;;;;;;;;;5.50;99.90;;;3.41;87.35;95523.53;10463369;28;1949;-83
2021/04/21 04:09:59;;;;;;;;;;;6.00;99.90;;;3.45;86.63;95527.34;10483493;28;1508;-87
2021/04/21 04:15:01;;;;;;;;;;;4.90;99.90;;;3.39;86.48;95526.44;10482359;28;1795;-83
2021/04/21 04:20:03;;;;;;;;;;;4.70;99.90;;;3.48;86.29;95524.22;10486122;28;1731;-86
2021/04/21 04:25:06;;;;;;;;;;;4.60;99.90;;;3.47;85.99;95527.91;10476858;28;1965;-84
2021/04/21 04:30:09;;;;;;;;;;;6.30;99.90;;;3.56;85.75;95531.81;10493668;28;2058;-85
2021/04/21 04:35:10;;;;;;;;;;;6.20;99.90;;;3.68;84.96;95529.94;10488194;28;1891;-81
2021/04/21 04:40:12;;;;;;;;;;;4.80;99.90;;;3.83;84.74;95540.06;10463670;28;1735;-82
2021/04/21 04:45:14;;;;;;;;;;;4.80;99.90;;;3.97;84.17;95538.75;10474345;28;2425;-83
2021/04/21 04:50:16;;;;;;;;;;;6.00;99.90;;;4.27;82.84;95540.34;10447852;28;2086;-82
2021/04/21 04:55:17;;;;;;;;;;;6.00;99.90;;;4.63;81.33;95548.94;10452771;28;2250;-84
2021/04/21 05:00:21;;;;;;;;;;;5.50;99.90;;;4.93;80.20;95556.59;10498952;28;2197;-86
2021/04/21 05:05:23;;;;;;;;;;;6.00;99.90;;;5.27;78.66;95552.81;10497942;28;1967;-85
2021/04/21 05:10:25;;;;;;;;;;;6.10;99.90;;;5.78;77.41;95558.81;10481915;28;1865;-83
2021/04/21 05:15:27;;;;;;;;;;;6.80;99.90;;;6.35;75.25;95566.44;10462913;28;1947;-85
2021/04/21 05:20:29;;;;;;;;;;;7.50;99.90;;;6.92;72.17;95568.53;10450641;28;1895;-84
2021/04/21 05:25:30;;;;;;;;;;;7.30;99.90;;;7.33;70.53;95571.53;10454604;28;2019;-83
2021/04/21 05:30:32;;;;;;;;;;;8.30;99.90;;;7.75;67.99;95576.03;10468660;28;2037;-83
2021/04/21 05:35:34;;;;;;;;;;;8.10;99.90;;;7.77;67.24;95579.28;10460498;28;2021;-82
2021/04/21 05:40:36;;;;;;;;;;;8.40;99.90;;;7.47;68.79;95585.25;10463629;28;2149;-82
2021/04/21 05:45:39;;;;;;;;;;;8.40;99.90;;;7.47;68.93;95591.41;10438979;28;2010;-84
2021/04/21 05:50:42;;;;;;;;;;;9.10;99.90;;;7.65;68.49;95582.16;10458437;28;2003;-85
2021/04/21 05:55:44;;;;;;;;;;;8.60;99.90;;;7.95;67.66;95592.22;10442990;28;2253;-86
2021/04/21 06:00:47;;;;;;;;;;;8.70;99.90;;;8.23;66.23;95584.81;10490429;28;2084;-84
2021/04/21 06:05:49;;;;;;;;;;;9.00;99.90;;;8.36;66.35;95582.47;10466598;28;2240;-87
2021/04/21 06:10:54;;;;;;;;;;;9.30;99.90;;;8.96;64.37;95568.59;10465070;28;1903;-86
2021/04/21 06:15:58;;;;;;;;;;;10.10;99.90;;;9.19;62.28;95576.13;10476652;28;1769;-86
2021/04/21 06:21:00;;;;;;;;;;;9.90;99.90;;;9.33;61.15;95584.41;10480858;28;1840;-87
2021/04/21 06:26:14;;;;;;;;;;;11.20;99.90;;;8.88;63.03;95594.88;10480201;28;1891;-85
2021/04/21 06:31:21;;;;;;;;;;;10.00;99.90;;;9.41;61.21;95587.34;10498594;28;1562;-86
2021/04/21 06:42:08;;;;;;;;;;;10.60;99.90;;;9.36;60.56;95589.25;10486123;28;2003;-86
2021/04/21 06:47:14;;;;;;;;;;;10.40;99.90;;;9.74;59.63;95585.97;10451334;28;1964;-82
2021/04/21 06:52:23;;;;;;;;;;;10.60;99.90;;;9.92;59.08;95587.22;10470175;28;2031;-84
2021/04/21 06:57:25;;;;;;;;;;;10.90;99.90;;;10.13;59.23;95592.53;10445477;28;2321;-84
2021/04/21 07:02:27;;;;;;;;;;;11.00;99.90;;;10.55;57.00;95589.41;10468526;28;2316;-84
2021/04/21 07:07:29;;;;;;;;;;;11.40;99.90;;;11.17;55.87;95595.97;10468743;28;2274;-84
2021/04/21 07:12:31;;;;;;;;;;;11.80;99.90;;;11.04;54.82;95593.94;10453304;28;2004;-83
2021/04/21 07:17:33;;;;;;;;;;;12.10;99.90;;;11.37;54.28;95601.19;10459355;28;2301;-84
2021/04/21 07:22:35;;;;;;;;;;;12.30;99.90;;;11.84;51.96;95609.69;10448611;28;2299;-84
2021/04/21 07:27:37;;;;;;;;;;;12.70;99.90;;;12.10;50.94;95599.44;10451355;28;2330;-83
2021/04/21 07:32:39;;;;;;;;;;;13.00;99.90;;;12.05;52.07;95610.25;10452246;28;2215;-84
2021/04/21 07:37:42;;;;;;;;;;;13.20;99.90;;;12.75;49.33;95606.97;10469769;28;2097;-85
2021/04/21 07:42:44;;;;;;;;;;;13.50;99.90;;;13.11;48.48;95601.88;10464759;28;1968;-83
2021/04/21 07:47:46;;;;;;;;;;;13.80;97.30;;;13.20;48.04;95597.38;10452377;28;2164;-86
2021/04/21 07:52:48;;;;;;;;;;;14.00;95.50;;;13.07;47.40;95600.84;10474102;28;1585;-82
2021/04/21 07:57:50;;;;;;;;;;;14.20;92.10;;;13.42;45.09;95594.91;10454380;28;1853;-83
2021/04/21 08:02:52;;;;;;;;;;;14.40;89.60;;;13.59;45.87;95598.94;10452762;28;2059;-83
2021/04/21 08:07:57;;;;;;;;;;;14.40;89.00;;;14.02;45.64;95603.00;10458118;28;2474;-83
2021/04/21 08:12:59;;;;;;;;;;;14.70;88.20;;;14.06;45.28;95597.81;10475754;28;2147;-85
2021/04/21 08:18:01;;;;;;;;;;;15.10;86.60;;;14.49;44.28;95597.50;10452711;28;2272;-83
2021/04/21 08:23:03;;;;;;;;;;;15.40;84.50;;;14.90;41.73;95599.38;10446903;28;2637;-86
2021/04/21 08:28:05;;;;;;;;;;;15.60;81.90;;;14.13;43.83;95600.13;10465252;28;2073;-84
2021/04/21 08:45:21;;;;;;;;;;;15.50;79.10;;;14.70;41.29;95597.91;10440417;28;2075;-85
2021/04/21 08:50:31;;;;;;;;;;;15.70;77.20;;;14.67;42.02;95595.78;10450632;28;2043;-81
2021/04/21 09:07:10;;;;;;;;;;;16.00;75.20;;;15.34;40.50;95593.19;10405996;23;1967;-81
2021/04/21 09:28:58;;;;;;;;;;;16.60;69.50;;;15.18;38.83;95586.53;1092571;26;2006;-81
2021/04/21 09:40:17;;;;;;;;;;;16.30;69.40;;;15.07;38.92;95588.66;10395719;28;2042;-87
2021/04/21 09:51:23;;;;;;;;;;;;;;;;;;;;;
2021/04/21 09:56:29;;;;;;;;;;;16.60;69.50;;;15.44;39.05;95592.13;10401682;28;2391;-87
2021/04/21 10:07:11;;;;;;;;;;;16.30;68.40;;;14.44;41.22;95584.06;10386456;28;2350;-83
2021/04/21 10:18:16;;;;;;;;;;;15.40;68.80;;;14.72;39.48;95585.66;10380913;28;1887;-84
2021/04/21 10:23:20;;;;;;;;;;;15.40;69.50;;;15.38;37.38;95584.13;10382584;28;1960;-85
2021/04/21 10:29:01;;;;;;;;;;;16.00;67.70;;;15.11;37.46;95579.63;10395095;28;1953;-85
2021/04/21 10:34:05;;;;;;;;;;;16.00;66.60;;;16.16;35.61;95571.03;10374654;28;1944;-84
2021/04/21 10:39:11;;;;;;;;;;;16.80;65.70;;;16.36;35.39;95566.13;10380878;28;1766;-84
2021/04/21 10:44:19;;;;;;;;;;;17.20;65.10;;;16.72;35.30;95557.75;10381866;28;1981;-82
2021/04/21 10:49:51;;;;;;;;;;;17.30;64.80;;;16.86;34.82;95550.28;10382899;28;1904;-88
2021/04/21 10:55:14;;;;;;;;;;;17.80;63.40;;;17.14;35.00;95553.47;10402733;28;1937;-90
2021/04/21 11:00:46;;;;;;;;;;;17.90;63.50;;;16.99;33.77;95545.81;10414289;28;1979;-87
2021/04/21 11:06:33;;;;;;;;;;;18.10;61.00;;;16.95;33.11;95542.13;10381339;28;1980;-85
2021/04/21 11:11:43;;;;;;;;;;;18.00;59.70;;;17.62;32.05;95533.41;10379105;28;2061;-84
2021/04/21 11:17:05;;;;;;;;;;;;;;;;;;;;;
2021/04/21 11:22:37;;;;;;;;;;;18.00;59.10;;;16.83;32.87;95528.41;10571079;22;3635;-86
2021/04/21 11:27:43;;;;;;;;;;;17.70;60.00;;;16.61;33.61;95527.41;10432635;28;2277;-86
2021/04/21 11:32:50;;;;;;;;;;;17.70;59.30;;;16.88;32.88;95514.66;10424792;28;1891;-86
2021/04/21 11:38:21;;;;;;;;;;;17.80;58.90;;;16.08;34.18;95524.88;10427621;28;1692;-86
2021/04/21 11:43:48;;;;;;;;;;;17.40;59.50;;;15.96;33.98;95522.75;10421261;28;2009;-87
2021/04/21 12:00:23;;;;;;;;;;;16.50;60.80;;;15.38;35.33;95518.31;10305315;28;1767;-82
2021/04/21 12:05:27;;;;;;;;;;;16.40;60.40;;;15.49;35.03;95514.25;10408082;28;2353;-84
2021/04/21 12:10:39;;;;;;;;;;;16.40;60.90;;;15.65;34.39;95501.94;10419297;28;1970;-81
2021/04/21 12:15:45;;;;;;;;;;;16.70;59.80;;;15.76;34.59;95490.81;10438584;28;1942;-81
2021/04/21 12:20:48;;;;;;;;;;;16.70;60.10;;;16.14;33.35;95481.03;10417392;28;1900;-81
2021/04/21 12:25:55;;;;;;;;;;;16.90;59.50;;;16.01;33.10;95475.75;10419311;28;2303;-83
2021/04/21 12:30:57;;;;;;;;;;;17.00;58.40;;;16.12;32.50;95469.72;10421933;28;1982;-84
2021/04/21 12:36:00;;;;;;;;;;;17.00;58.10;;;16.26;31.80;95471.50;10429525;28;2304;-82
2021/04/21 12:41:04;;;;;;;;;;;17.50;56.70;;;17.00;30.45;95472.19;10425705;28;2150;-83
2021/04/21 12:46:13;;;;;;;;;;;17.90;55.70;;;17.23;29.53;95461.91;10424012;28;2283;-80
2021/04/21 12:51:40;;;;;;;;;;;18.00;54.90;;;16.75;29.83;95457.50;10418771;28;1996;-84
2021/04/21 12:56:44;;;;;;;;;;;17.80;54.50;;;17.18;29.64;95456.66;10424507;28;2034;-81
2021/04/21 13:01:49;;;;;;;;;;;17.80;54.80;;;16.99;29.43;95453.50;10431283;28;1997;-84
2021/04/21 13:06:53;;;;;;;;;;;17.90;53.70;;;16.69;29.09;95441.69;10435523;28;1987;-83
2021/04/21 13:11:58;;;;;;;;;;;17.70;53.00;;;16.72;28.73;95439.13;10442104;28;2023;-85
2021/04/21 13:17:00;;;;;;;;;;;17.60;53.00;;;16.65;28.47;95440.72;10444936;28;1566;-84
2021/04/21 13:22:02;;;;;;;;;;;17.50;52.40;;;17.55;29.74;95425.19;10417926;28;2019;-79
2021/04/21 13:27:05;;;;;;;;;;;18.00;53.60;;;18.02;29.09;95414.28;10416826;28;2111;-78
2021/04/21 13:32:07;;;;;;;;;;;18.70;54.40;;;17.49;30.84;95420.25;10413621;28;2024;-80
2021/04/21 13:37:08;;;;;;;;;;;18.70;54.50;;;16.95;30.68;95418.03;10400333;28;2090;-79
2021/04/21 13:42:18;;;;;;;;;;;18.20;54.10;;;16.54;32.02;95417.72;10406212;28;2020;-80
2021/04/21 13:47:20;;;;;;;;;;;17.70;55.30;;;16.19;32.95;95413.09;10403311;28;2078;-85
2021/04/21 13:52:23;;;;;;;;;;;17.40;55.80;;;15.73;35.23;95415.56;10423073;28;2086;-84
2021/04/21 13:57:26;;;;;;;;;;;17.00;57.70;;;15.72;34.76;95408.56;10423301;28;1984;-83
2021/04/21 14:02:27;;;;;;;;;;;16.80;58.10;;;15.64;35.85;95419.03;10445166;28;2050;-86
2021/04/21 14:07:34;;;;;;;;;;;16.70;59.00;;;15.92;36.23;95397.91;10456508;28;2032;-83
2021/04/21 14:12:36;;;;;;;;;;;16.70;60.00;;;16.36;34.37;95397.97;10439549;28;1983;-83
2021/04/21 14:17:39;;;;;;;;;;;17.20;58.60;;;16.31;33.84;95398.13;10429378;28;2312;-83
2021/04/21 14:22:45;;;;;;;;;;;17.40;57.20;;;15.87;35.38;95397.25;10438273;28;2099;-83
2021/04/21 14:27:54;;;;;;;;;;;17.20;58.10;;;15.75;35.29;95394.38;10434189;28;2035;-84
2021/04/21 14:33:00;;;;;;;;;;;16.90;58.60;;;15.68;34.98;95384.78;10417324;28;2174;-84
2021/04/21 14:38:03;;;;;;;;;;;16.70;58.30;;;15.30;39.05;95392.59;10433458;28;1775;-79
2021/04/21 14:43:06;;;;;;;;;;;16.60;61.80;;;14.83;41.32;95399.53;10444053;28;1960;-84
2021/04/21 14:48:24;;;;;;;;;;;16.10;64.40;;;15.01;40.82;95389.59;10447360;28;2054;-82
2021/04/21 14:53:27;;;;;;;;;;;15.90;64.80;;;14.83;41.03;95396.84;10443834;28;1988;-84
2021/04/21 14:58:46;;;;;;;;;;;16.00;64.60;;;14.77;40.67;95395.38;10439991;28;1976;-86
2021/04/21 15:03:51;;;;;;;;;;;15.90;64.50;;;14.73;40.63;95394.38;10440361;28;1929;-90
2021/04/21 15:14:55;;;;;;;;;;;15.90;64.20;;;15.26;39.86;95393.53;10247494;29;2041;-84
2021/04/21 15:25:23;;;;;;;;;;;;;;;;;;;;;
2021/04/21 15:30:50;;;;;;;;;;;16.10;63.80;;;14.92;39.75;95405.78;10387856;28;2025;-86
2021/04/21 15:35:54;;;;;;;;;;;16.00;63.70;;;14.81;40.57;95417.97;10405575;28;1635;-87
2021/04/21 15:47:36;;;;;;;;;;;15.80;64.90;;;14.33;45.51;95440.19;10229882;29;2119;-86
2021/04/21 15:53:47;;;;;;;;;;;15.60;69.50;;;13.74;47.26;95429.31;10221979;28;2037;-82
2021/04/21 16:05:42;;;;;;;;;;;14.90;71.40;;;13.68;46.45;95435.09;10211626;29;2122;-81
2021/04/21 16:11:02;;;;;;;;;;;14.80;71.30;;;13.59;47.39;95437.69;10206320;29;2339;-81
2021/04/21 16:16:09;;;;;;;;;;;14.70;71.80;;;13.43;47.33;95442.59;10289283;28;2094;-78
2021/04/21 16:21:11;;;;;;;;;;;14.60;71.80;;;13.61;47.10;95445.50;10387725;28;1947;-80
2021/04/21 16:26:28;;;;;;;;;;;14.60;71.90;;;13.43;46.70;95442.59;10395248;28;2073;-80
2021/04/21 16:31:36;;;;;;;;;;;14.50;71.80;;;13.24;47.08;95450.00;10394671;28;2116;-82
2021/04/21 16:36:39;;;;;;;;;;;14.40;71.70;;;13.25;46.98;95443.50;10391857;28;1894;-81
2021/04/21 16:41:42;;;;;;;;;;;14.30;72.30;;;13.15;47.28;95447.13;10391278;28;1987;-82
2021/04/21 16:46:45;;;;;;;;;;;14.20;72.40;;;13.08;47.09;95445.91;10387212;28;2130;-80
2021/04/21 16:51:50;;;;;;;;;;;14.10;72.70;;;13.01;46.95;95459.00;10388001;28;2065;-83
2021/04/21 16:56:52;;;;;;;;;;;14.10;72.40;;;13.00;47.26;95455.50;10389924;28;1912;-82
2021/04/21 17:01:54;;;;;;;;;;;14.00;72.20;;;12.96;47.04;95451.78;10385146;28;1996;-81
2021/04/21 17:06:56;;;;;;;;;;;14.00;72.10;;;12.85;46.72;95466.53;10387712;28;1996;-79
2021/04/21 17:11:58;;;;;;;;;;;13.90;71.70;;;12.76;46.83;95468.31;10376941;28;1928;-81
2021/04/21 17:17:00;;;;;;;;;;;14.40;72.20;;;12.70;47.49;95476.47;10378433;28;2051;-82
2021/04/21 17:22:06;;;;;;;;;;;13.80;72.00;;;12.59;46.75;95475.03;10371105;28;2009;-82
2021/04/21 17:32:55;;;;;;;;;;;13.60;72.20;;;12.44;47.09;95484.16;10333918;28;1990;-80
2021/04/21 17:38:00;;;;;;;;;;;13.50;72.20;;;12.39;47.36;95484.22;10375975;28;2018;-79
2021/04/21 17:43:03;;;;;;;;;;;13.50;72.20;;;12.36;47.21;95487.53;10375498;28;2032;-81
2021/04/21 17:48:13;;;;;;;;;;;13.40;72.60;;;12.33;47.47;95493.47;10382619;28;1997;-82
2021/04/21 17:53:17;;;;;;;;;;;13.40;72.70;;;12.36;47.63;95489.41;10393330;28;1340;-79
2021/04/21 17:58:18;;;;;;;;;;;13.40;73.00;;;12.22;47.47;95491.25;10391396;28;2204;-82
2021/04/21 18:03:22;;;;;;;;;;;13.30;72.80;;;12.15;48.36;95505.03;10386929;28;1938;-81
2021/04/21 18:08:24;;;;;;;;;;;13.30;73.10;;;12.12;49.26;95506.44;10386319;28;1957;-80
2021/04/21 18:13:26;;;;;;;;;;;13.20;74.00;;;12.13;48.08;95520.69;10384634;28;1997;-82
2021/04/21 18:18:31;;;;;;;;;;;13.20;73.30;;;12.04;48.30;95525.16;10381397;28;1750;-76
2021/04/21 18:23:39;;;;;;;;;;;13.10;73.30;;;11.96;48.62;95536.53;10396716;28;1502;-79
2021/04/21 18:34:29;;;;;;;;;;;13.00;73.90;;;11.73;49.35;95544.31;10415951;28;1549;-84
2021/04/21 18:45:13;;;;;;;;;;;12.80;74.70;;;11.40;50.95;95555.97;10425011;28;1894;-83
2021/04/21 18:50:48;;;;;;;;;;;12.60;75.30;;;11.33;50.44;95553.63;10393408;28;1610;-81
2021/04/21 19:01:36;;;;;;;;;;;12.40;76.10;;;11.22;51.21;95582.50;10347446;28;1694;-84
2021/04/21 19:12:37;;;;;;;;;;;12.30;76.80;;;11.14;51.30;95611.91;10369401;28;1841;-82
2021/04/21 19:18:00;;;;;;;;;;;12.30;76.70;;;11.08;51.61;95606.53;10392170;28;1813;-82
2021/04/21 19:23:10;;;;;;;;;;;12.20;77.00;;;10.96;52.49;95618.75;10396147;28;1304;-81
2021/04/21 19:28:17;;;;;;;;;;;12.10;77.50;;;10.87;52.75;95605.06;10384124;28;1973;-81
2021/04/21 19:33:28;;;;;;;;;;;12.10;77.90;;;10.64;54.02;95614.63;10380129;28;1566;-83
2021/04/21 19:38:44;;;;;;;;;;;11.90;79.00;;;10.48;54.47;95613.91;10374446;28;1168;-80
2021/04/21 19:44:17;;;;;;;;;;;11.70;79.50;;;10.31;56.02;95615.31;10381273;28;1969;-82
2021/04/21 19:49:33;;;;;;;;;;;11.60;80.70;;;10.12;56.61;95609.75;10389037;28;1507;-81
2021/04/21 19:54:48;;;;;;;;;;;11.40;81.30;;;9.99;57.92;95613.81;10377953;28;1286;-81
2021/04/21 20:00:03;;;;;;;;;;;11.30;82.50;;;9.86;58.72;95622.41;10375606;28;1574;-79
2021/04/21 20:05:22;;;;;;;;;;;11.10;83.40;;;9.73;59.33;95627.31;10379625;28;1914;-82
2021/04/21 20:17:10;;;;;;;;;;;10.90;85.10;;;9.56;60.44;95618.72;10261243;28;1618;-82
2021/04/21 20:23:01;;;;;;;;;;;10.80;85.70;;;9.41;61.26;95616.06;10361033;28;2118;-82
2021/04/21 20:34:56;;;;;;;;;;;10.60;87.60;;;9.17;62.81;95607.78;10309388;28;1731;-81
2021/04/21 21:21:43;;;;;;;;;;;9.90;93.10;;;8.38;66.41;95590.22;10118030;29;1753;-81
2021/04/21 21:27:13;;;;;;;;;;;9.70;93.70;;;8.29;67.97;95600.63;10181085;29;1967;-80
2021/04/21 21:32:35;;;;;;;;;;;10.50;95.10;;;8.21;67.72;95611.06;10271964;28;1701;-81
2021/04/21 21:37:44;;;;;;;;;;;9.50;95.30;;;8.18;68.30;95615.03;10393823;28;1932;-84
2021/04/21 21:42:57;;;;;;;;;;;9.40;95.90;;;8.18;68.89;95617.72;10393045;28;1970;-85
2021/04/21 21:48:00;;;;;;;;;;;9.40;96.80;;;8.27;68.63;95618.84;10402458;28;1955;-85
2021/04/21 21:58:41;;;;;;;;;;;9.40;98.00;;;8.08;70.56;95623.84;10414575;28;1806;-84
2021/04/21 22:09:25;;;;;;;;;;;10.10;99.90;;;7.92;70.65;95626.69;10377107;28;2373;-79
2021/04/21 22:14:29;;;;;;;;;;;9.20;99.90;;;7.82;71.54;95628.28;10369387;28;1923;-81
2021/04/21 22:19:34;;;;;;;;;;;10.20;99.90;;;7.70;72.04;95637.53;10382752;28;2095;-82
2021/04/21 22:24:40;;;;;;;;;;;9.00;99.90;;;7.59;72.82;95640.16;10382200;28;1993;-79
2021/04/21 22:29:52;;;;;;;;;;;9.80;99.90;;;7.54;72.70;95650.81;10381766;28;2026;-80
2021/04/21 22:35:00;;;;;;;;;;;9.30;99.90;;;7.67;73.13;95652.25;10377430;28;2011;-79
2021/04/21 22:40:09;;;;;;;;;;;9.80;99.90;;;7.71;72.66;95652.53;10363995;28;1727;-79
2021/04/21 22:45:12;;;;;;;;;;;10.30;99.90;;;7.75;72.66;95656.31;10381733;28;1906;-80
2021/04/21 22:50:14;;;;;;;;;;;8.90;99.90;;;7.63;73.08;95664.50;10370644;28;1903;-81
2021/04/21 22:55:16;;;;;;;;;;;8.90;99.90;;;7.72;72.82;95673.69;10371378;28;1507;-82
2021/04/21 23:00:19;;;;;;;;;;;8.80;99.90;;;7.70;72.67;95675.00;10355486;28;2024;-79
2021/04/21 23:05:21;;;;;;;;;;;9.00;99.90;;;7.49;73.54;95668.69;10368059;28;2032;-79
2021/04/21 23:10:23;;;;;;;;;;;8.70;99.90;;;7.44;73.11;95693.53;10378738;28;1937;-80
2021/04/21 23:15:25;;;;;;;;;;;9.40;99.90;;;7.33;73.63;95681.16;10378243;28;1957;-81
2021/04/21 23:20:28;;;;;;;;;;;9.60;99.90;;;7.25;73.79;95685.13;10374127;28;1966;-78
2021/04/21 23:25:30;;;;;;;;;;;8.40;99.90;;;7.20;73.47;95690.41;10380761;28;2378;-81
2021/04/21 23:30:31;;;;;;;;;;;8.40;99.90;;;7.16;73.87;95689.28;10367067;28;1731;-82
2021/04/21 23:35:33;;;;;;;;;;;8.40;99.90;;;7.11;73.67;95691.09;10388636;28;1991;-84
2021/04/21 23:40:35;;;;;;;;;;;8.30;99.90;;;7.05;74.08;95695.59;10413231;28;1604;-81
2021/04/21 23:45:37;;;;;;;;;;;8.30;99.90;;;7.08;73.94;95692.44;10403287;28;1977;-80
2021/04/21 23:50:39;;;;;;;;;;;8.90;99.90;;;7.19;73.75;95696.00;10382843;28;1683;-81
2021/04/21 23:55:41;;;;;;;;;;;8.70;99.90;;;7.28;72.99;95702.50;10382767;28;1841;-81
